Time;durP1;ratioP1;P1;durP2;ratioP2;P2;SDS_P1;SDS_P2;PMS_P1;PMS_P2;Temp;Humidity;BMP_temperature;BMP_pressure;BME280_temperature;BME280_humidity;BME280_pressure;Samples;Min_cycle;Max_cycle;Signal;HPM_P1;HPM_P2
2023/09/06 00:01:41;;;;;;;9.80;8.68;;;18.30;99.90;;;;;;4941199;28;20074;-84
2023/09/06 00:04:09;;;;;;;10.02;8.88;;;18.20;99.90;;;;;;4959505;28;20506;-85
2023/09/06 00:06:35;;;;;;;11.65;8.20;;;18.20;99.90;;;;;;4960779;28;20053;-83
2023/09/06 00:09:00;;;;;;;8.88;8.00;;;18.10;99.90;;;;;;4941686;28;20048;-84
2023/09/06 00:11:27;;;;;;;8.75;7.85;;;18.00;99.90;;;;;;4970838;28;20043;-84
2023/09/06 00:13:53;;;;;;;8.85;7.68;;;18.00;99.90;;;;;;4957928;28;20390;-84
2023/09/06 00:16:19;;;;;;;7.15;6.45;;;18.00;99.90;;;;;;4974823;28;20043;-84
2023/09/06 00:18:44;;;;;;;8.95;7.03;;;17.90;99.90;;;;;;4959846;28;20513;-84
2023/09/06 00:21:10;;;;;;;8.07;6.90;;;17.90;99.90;;;;;;4943187;28;20034;-84
2023/09/06 00:23:40;;;;;;;8.48;7.57;;;17.90;99.90;;;;;;4943506;28;21689;-84
2023/09/06 00:26:05;;;;;;;9.68;7.82;;;17.90;99.90;;;;;;4957620;28;20042;-84
2023/09/06 00:28:31;;;;;;;8.23;7.22;;;17.90;99.90;;;;;;4959092;28;20042;-84
2023/09/06 00:30:57;;;;;;;8.18;7.38;;;17.80;99.90;;;;;;4943831;28;20043;-85
2023/09/06 00:33:26;;;;;;;8.85;8.00;;;17.90;99.90;;;;;;4974736;28;20043;-84
2023/09/06 00:35:51;;;;;;;10.60;9.23;;;17.80;99.90;;;;;;4956897;28;20228;-84
2023/09/06 00:38:20;;;;;;;12.10;9.45;;;17.90;99.90;;;;;;4959139;28;20253;-85
2023/09/06 00:40:51;;;;;;;9.75;8.75;;;17.80;99.90;;;;;;4939239;28;20615;-84
2023/09/06 00:43:17;;;;;;;11.77;9.27;;;17.80;99.90;;;;;;4959266;28;20126;-84
2023/09/06 00:45:45;;;;;;;11.80;9.43;;;17.80;99.90;;;;;;4960815;28;20118;-84
2023/09/06 00:48:13;;;;;;;10.68;8.25;;;17.70;99.90;;;;;;4957235;28;20102;-84
2023/09/06 00:50:42;;;;;;;10.15;9.05;;;17.70;99.90;;;;;;4958939;28;20051;-85
2023/09/06 00:53:08;;;;;;;11.55;9.70;;;17.70;99.90;;;;;;4973727;28;20060;-84
2023/09/06 00:55:37;;;;;;;12.38;10.00;;;17.70;99.90;;;;;;4960223;28;20306;-84
2023/09/06 00:58:08;;;;;;;11.57;8.93;;;17.70;99.90;;;;;;4959247;28;20046;-85
2023/09/06 01:00:35;;;;;;;10.57;9.48;;;17.60;99.90;;;;;;4958619;28;20264;-84
2023/09/06 01:03:05;;;;;;;11.70;10.10;;;17.60;99.90;;;;;;4958720;28;20565;-84
2023/09/06 01:05:40;;;;;;;12.20;8.75;;;17.50;99.90;;;;;;4973507;28;20143;-85
2023/09/06 01:08:09;;;;;;;9.05;8.15;;;17.50;99.90;;;;;;4942960;28;20105;-85
2023/09/06 01:10:35;;;;;;;13.80;9.20;;;17.50;99.90;;;;;;4958884;28;20113;-84
2023/09/06 01:13:03;;;;;;;11.48;9.10;;;17.50;99.90;;;;;;4942719;28;21100;-84
2023/09/06 01:15:29;;;;;;;9.75;8.70;;;17.40;99.90;;;;;;4940212;28;20223;-84
2023/09/06 01:17:57;;;;;;;11.40;9.20;;;17.40;99.90;;;;;;4956855;28;20046;-84
2023/09/06 01:20:32;;;;;;;11.80;9.35;;;17.30;99.90;;;;;;4952430;28;20504;-84
2023/09/06 01:23:12;;;;;;;10.68;9.57;;;17.30;99.90;;;;;;4960933;28;20375;-84
2023/09/06 01:25:39;;;;;;;10.38;9.27;;;17.30;99.90;;;;;;4952773;28;20050;-84
2023/09/06 01:28:05;;;;;;;9.32;8.13;;;17.30;99.90;;;;;;4972599;28;20109;-84
2023/09/06 01:30:35;;;;;;;10.32;8.63;;;17.30;99.90;;;;;;4958148;28;20043;-84
2023/09/06 01:33:00;;;;;;;9.75;8.45;;;17.30;99.90;;;;;;4942586;28;20049;-84
2023/09/06 01:35:26;;;;;;;10.25;9.20;;;17.20;99.90;;;;;;4958040;28;20046;-84
2023/09/06 01:37:51;;;;;;;11.88;9.85;;;17.10;99.90;;;;;;4959914;28;20396;-84
2023/09/06 01:40:17;;;;;;;11.15;9.13;;;17.10;99.90;;;;;;4956952;28;20042;-85
2023/09/06 01:42:44;;;;;;;10.70;9.65;;;17.10;99.90;;;;;;4956986;28;20070;-84
2023/09/06 01:45:10;;;;;;;11.52;9.55;;;17.20;99.90;;;;;;4957461;28;20054;-84
2023/09/06 01:47:35;;;;;;;10.80;9.70;;;17.10;99.90;;;;;;4970224;28;20035;-84
2023/09/06 01:50:02;;;;;;;12.75;9.70;;;17.10;99.90;;;;;;4959572;28;20050;-84
2023/09/06 01:52:27;;;;;;;11.40;8.80;;;17.00;99.90;;;;;;4956724;28;20478;-84
2023/09/06 01:54:56;;;;;;;9.02;7.15;;;17.00;99.90;;;;;;4970794;28;20042;-84
2023/09/06 01:57:21;;;;;;;10.38;8.75;;;16.80;99.90;;;;;;4971873;28;20398;-84
2023/09/06 01:59:50;;;;;;;9.35;8.45;;;16.90;99.90;;;;;;4957889;28;20043;-84
2023/09/06 02:02:16;;;;;;;9.15;8.25;;;16.80;99.90;;;;;;4943975;28;20388;-84
2023/09/06 02:04:42;;;;;;;9.85;6.22;;;16.80;99.90;;;;;;4977496;28;20037;-84
2023/09/06 02:07:07;;;;;;;62.30;10.07;;;16.70;99.90;;;;;;4945243;28;20917;-85
2023/09/06 02:09:33;;;;;;;12.95;7.60;;;16.70;99.90;;;;;;4978921;28;20066;-84
2023/09/06 02:11:59;;;;;;;26.95;7.63;;;16.70;99.90;;;;;;4945745;28;20129;-83
2023/09/06 02:14:25;;;;;;;9.95;7.43;;;16.60;99.90;;;;;;4962290;28;20043;-84
2023/09/06 02:16:50;;;;;;;11.55;6.80;;;16.50;99.90;;;;;;4961728;28;20113;-84
2023/09/06 02:19:16;;;;;;;24.30;6.85;;;16.50;99.90;;;;;;4964846;28;20078;-84
2023/09/06 02:21:42;;;;;;;8.07;7.28;;;16.50;99.90;;;;;;4962525;28;21007;-84
2023/09/06 02:24:10;;;;;;;9.20;8.30;;;16.50;99.90;;;;;;4957100;28;20035;-84
2023/09/06 02:26:37;;;;;;;9.73;8.15;;;16.50;99.90;;;;;;4952874;28;20379;-84
2023/09/06 02:29:04;;;;;;;8.35;7.53;;;16.40;99.90;;;;;;4941299;28;20122;-83
2023/09/06 02:31:30;;;;;;;9.80;8.80;;;16.40;99.90;;;;;;4959952;28;20165;-84
2023/09/06 02:33:56;;;;;;;9.85;8.65;;;16.40;99.90;;;;;;4956447;28;20114;-83
2023/09/06 02:36:21;;;;;;;10.43;8.48;;;16.50;99.90;;;;;;4976971;28;20438;-84
2023/09/06 02:38:50;;;;;;;8.57;7.68;;;16.40;99.90;;;;;;4962997;28;20056;-82
2023/09/06 02:41:16;;;;;;;8.98;7.55;;;16.40;99.90;;;;;;4936750;28;20043;-84
2023/09/06 02:43:41;;;;;;;9.18;8.18;;;16.30;99.90;;;;;;4959866;28;20379;-84
2023/09/06 02:46:07;;;;;;;10.48;8.77;;;16.30;99.90;;;;;;4959713;28;20216;-83
2023/09/06 02:48:33;;;;;;;10.27;8.60;;;16.40;99.90;;;;;;4960449;28;20042;-83
2023/09/06 02:50:59;;;;;;;9.65;8.65;;;16.40;99.90;;;;;;4946015;28;20047;-83
2023/09/06 02:53:26;;;;;;;8.00;6.57;;;16.40;99.90;;;;;;4956996;28;20052;-83
2023/09/06 02:55:52;;;;;;;7.68;6.97;;;16.30;99.90;;;;;;4975771;28;20058;-84
2023/09/06 02:58:25;;;;;;;8.45;7.55;;;16.20;99.90;;;;;;4943636;28;20046;-84
2023/09/06 03:00:55;;;;;;;10.05;7.38;;;16.20;99.90;;;;;;4944351;28;20329;-84
2023/09/06 03:03:21;;;;;;;8.30;7.18;;;16.10;99.90;;;;;;4962725;28;20043;-83
2023/09/06 03:05:47;;;;;;;7.82;7.07;;;16.20;99.90;;;;;;4960159;28;20327;-83
2023/09/06 03:08:13;;;;;;;8.93;6.72;;;16.20;99.90;;;;;;4956986;28;20577;-84
2023/09/06 03:10:40;;;;;;;8.38;7.57;;;16.10;99.90;;;;;;4974604;28;20085;-83
2023/09/06 03:13:07;;;;;;;12.63;8.10;;;16.10;99.90;;;;;;4963905;28;20054;-84
2023/09/06 03:15:37;;;;;;;9.48;8.30;;;16.10;99.90;;;;;;4944579;28;20395;-83
2023/09/06 03:18:05;;;;;;;10.75;9.65;;;16.10;99.90;;;;;;4961350;28;20047;-83
2023/09/06 03:20:42;;;;;;;11.50;9.85;;;16.10;99.90;;;;;;4958158;28;21591;-83
2023/09/06 03:23:18;;;;;;;11.63;8.57;;;16.10;99.90;;;;;;4976417;28;20054;-84
2023/09/06 03:25:49;;;;;;;8.48;7.57;;;16.00;99.90;;;;;;4957582;28;20034;-83
2023/09/06 03:28:16;;;;;;;5.45;4.88;;;15.90;99.90;;;;;;4942589;28;20062;-83
2023/09/06 03:30:42;;;;;;;8.80;7.70;;;15.80;99.90;;;;;;4977567;28;20042;-84
2023/09/06 03:33:08;;;;;;;6.25;5.60;;;15.80;99.90;;;;;;4957453;28;20498;-83
2023/09/06 03:35:37;;;;;;;7.32;5.28;;;15.80;99.90;;;;;;4958907;28;20035;-83
2023/09/06 03:38:07;;;;;;;6.18;5.53;;;15.70;99.90;;;;;;4961195;28;20987;-83
2023/09/06 03:40:36;;;;;;;5.93;5.32;;;15.70;99.90;;;;;;4956034;28;20490;-83
2023/09/06 03:43:14;;;;;;;7.10;6.40;;;15.60;99.90;;;;;;4961182;28;20435;-84
2023/09/06 03:45:44;;;;;;;8.85;7.03;;;15.60;99.90;;;;;;4960811;28;20078;-84
2023/09/06 03:48:11;;;;;;;8.73;7.82;;;15.70;99.90;;;;;;4958471;28;20158;-84
2023/09/06 03:50:37;;;;;;;8.70;7.90;;;15.70;99.90;;;;;;4957598;28;20119;-83
2023/09/06 03:53:04;;;;;;;8.50;7.57;;;15.70;99.90;;;;;;4961274;28;20110;-83
2023/09/06 03:55:38;;;;;;;9.30;7.97;;;15.80;99.90;;;;;;4958020;28;20062;-84
2023/09/06 03:58:07;;;;;;;12.43;8.60;;;15.80;99.90;;;;;;4956009;28;20053;-84
2023/09/06 04:00:39;;;;;;;12.30;8.85;;;15.80;99.90;;;;;;4958873;28;20438;-84
2023/09/06 04:03:07;;;;;;;10.63;9.52;;;15.80;99.90;;;;;;4946369;28;20532;-84
2023/09/06 04:05:34;;;;;;;12.00;9.30;;;15.80;99.90;;;;;;4942978;28;20133;-84
2023/09/06 04:08:03;;;;;;;10.93;9.73;;;15.90;99.90;;;;;;4959035;28;20114;-83
2023/09/06 04:10:36;;;;;;;11.20;8.57;;;15.90;99.90;;;;;;4957963;28;20446;-83
2023/09/06 04:13:07;;;;;;;10.77;8.63;;;15.80;99.90;;;;;;4942651;28;20043;-83
2023/09/06 04:15:36;;;;;;;11.48;8.18;;;15.80;99.90;;;;;;4959780;28;20043;-83
2023/09/06 04:18:07;;;;;;;10.32;9.15;;;15.80;99.90;;;;;;4961663;28;20232;-83
2023/09/06 04:20:39;;;;;;;12.38;8.90;;;15.80;99.90;;;;;;4967709;28;20097;-83
2023/09/06 04:23:08;;;;;;;;;;;15.80;99.90;;;;;;4960171;28;20074;-83
2023/09/06 04:25:41;;;;;;;10.38;8.93;;;15.80;99.90;;;;;;4945246;28;19933;-83
2023/09/06 04:28:12;;;;;;;8.95;8.05;;;15.80;99.90;;;;;;4949169;28;20031;-84
2023/09/06 04:30:40;;;;;;;11.00;8.35;;;15.70;99.90;;;;;;4948974;28;20038;-83
2023/09/06 04:33:08;;;;;;;9.35;8.20;;;15.70;99.90;;;;;;4959986;28;20039;-83
2023/09/06 04:35:39;;;;;;;21.73;6.93;;;15.70;99.90;;;;;;4958786;28;20052;-84
2023/09/06 04:38:05;;;;;;;13.18;6.63;;;15.60;99.90;;;;;;4974077;28;20503;-84
2023/09/06 04:40:31;;;;;;;8.85;7.55;;;15.50;99.90;;;;;;4956724;28;20043;-84
2023/09/06 04:42:56;;;;;;;7.82;6.75;;;15.50;99.90;;;;;;4957640;28;20072;-83
2023/09/06 04:45:22;;;;;;;10.60;7.13;;;15.40;99.90;;;;;;4957569;28;20095;-83
2023/09/06 04:47:56;;;;;;;9.02;7.65;;;15.40;99.90;;;;;;5062168;27;20917;-84
2023/09/06 04:50:24;;;;;;;8.05;7.22;;;15.50;99.90;;;;;;5055806;28;20178;-84
2023/09/06 04:52:53;;;;;;;7.97;6.90;;;15.40;99.90;;;;;;5071590;28;20045;-84
2023/09/06 04:55:24;;;;;;;9.77;7.72;;;15.50;99.90;;;;;;5026922;28;20507;-84
2023/09/06 04:57:50;;;;;;;8.65;7.80;;;15.50;99.90;;;;;;5049278;28;20111;-84
2023/09/06 05:00:23;;;;;;;8.63;7.72;;;15.50;99.90;;;;;;5054483;28;20079;-84
2023/09/06 05:02:51;;;;;;;9.45;7.70;;;15.50;99.90;;;;;;5049632;28;20090;-84
2023/09/06 05:05:17;;;;;;;8.38;7.20;;;15.50;99.90;;;;;;5073682;28;20032;-84
2023/09/06 05:07:44;;;;;;;9.65;7.85;;;15.50;99.90;;;;;;5024279;28;20448;-84
2023/09/06 05:10:11;;;;;;;9.98;8.52;;;15.60;99.90;;;;;;5070807;28;20037;-84
2023/09/06 05:12:37;;;;;;;8.45;7.55;;;15.60;99.90;;;;;;5073470;28;20033;-84
2023/09/06 05:15:07;;;;;;;9.30;7.57;;;15.60;99.90;;;;;;5039472;28;20049;-85
2023/09/06 05:17:33;;;;;;;7.95;6.82;;;15.70;99.90;;;;;;5043538;28;20041;-84
2023/09/06 05:20:32;;;;;;;8.05;7.25;;;15.70;99.90;;;;;;5074091;28;20431;-84
2023/09/06 05:23:06;;;;;;;9.05;7.07;;;15.70;99.90;;;;;;5042626;28;20084;-85
2023/09/06 05:25:35;;;;;;;8.88;7.45;;;15.70;99.90;;;;;;5013419;28;20103;-84
2023/09/06 05:28:08;;;;;;;8.32;7.28;;;15.80;99.90;;;;;;5022800;28;20183;-84
2023/09/06 05:30:40;;;;;;;7.68;6.88;;;15.80;99.90;;;;;;5048861;28;20508;-84
2023/09/06 05:33:06;;;;;;;8.52;6.85;;;15.90;99.90;;;;;;5066433;28;20037;-84
2023/09/06 05:35:32;;;;;;;8.93;7.03;;;15.90;99.90;;;;;;5074910;28;20025;-84
2023/09/06 05:37:57;;;;;;;7.75;6.75;;;16.00;99.90;;;;;;5040870;28;20608;-85
2023/09/06 05:40:26;;;;;;;8.45;7.30;;;16.00;99.90;;;;;;5058307;28;20091;-84
2023/09/06 05:42:54;;;;;;;9.85;8.02;;;16.00;99.90;;;;;;5029162;28;20069;-85
2023/09/06 05:45:26;;;;;;;8.20;7.35;;;16.10;99.90;;;;;;5040385;28;21208;-85
2023/09/06 05:47:52;;;;;;;8.13;7.30;;;16.10;99.90;;;;;;5016415;28;20404;-85
2023/09/06 05:50:21;;;;;;;9.80;6.68;;;16.20;99.90;;;;;;5051879;28;20297;-84
2023/09/06 05:52:49;;;;;;;8.65;6.80;;;16.20;99.90;;;;;;5075930;28;20107;-84
2023/09/06 05:55:15;;;;;;;8.13;7.30;;;16.30;99.90;;;;;;5074458;28;20045;-84
2023/09/06 05:57:41;;;;;;;10.60;7.30;;;16.40;99.90;;;;;;5045966;28;20038;-84
2023/09/06 06:00:15;;;;;;;11.07;7.07;;;16.50;99.90;;;;;;5027090;28;20045;-85
2023/09/06 06:02:41;;;;;;;8.60;7.15;;;16.60;99.90;;;;;;5052048;28;20479;-84
2023/09/06 06:05:09;;;;;;;7.20;6.38;;;16.70;99.90;;;;;;5008283;28;20095;-85
2023/09/06 06:07:34;;;;;;;12.05;7.30;;;16.80;99.90;;;;;;5046070;28;20128;-85
2023/09/06 06:10:00;;;;;;;7.93;6.85;;;16.90;99.90;;;;;;5043832;28;20121;-84
2023/09/06 06:12:26;;;;;;;7.13;6.40;;;17.00;99.90;;;;;;5016386;28;20048;-84
2023/09/06 06:14:51;;;;;;;9.27;6.45;;;17.10;99.90;;;;;;5056942;28;20041;-85
2023/09/06 06:17:18;;;;;;;7.43;6.60;;;17.20;99.90;;;;;;5054705;28;20041;-84
2023/09/06 06:19:47;;;;;;;9.30;6.68;;;17.30;99.90;;;;;;5015695;28;20073;-84
2023/09/06 06:22:13;;;;;;;7.75;6.55;;;17.40;99.90;;;;;;5016382;28;21218;-84
2023/09/06 06:24:45;;;;;;;8.18;6.68;;;17.50;99.90;;;;;;5025744;28;20041;-84
2023/09/06 06:27:11;;;;;;;7.05;6.03;;;17.50;99.90;;;;;;5002097;28;20057;-84
2023/09/06 06:29:36;;;;;;;7.15;6.38;;;17.70;99.90;;;;;;5008760;28;20060;-84
2023/09/06 06:32:02;;;;;;;7.07;5.90;;;17.80;99.90;;;;;;5000446;28;20132;-84
2023/09/06 06:34:28;;;;;;;7.95;5.70;;;17.80;99.90;;;;;;5054208;28;20436;-84
2023/09/06 06:36:53;;;;;;;6.47;5.78;;;18.00;99.90;;;;;;5018363;28;20085;-85
2023/09/06 06:39:19;;;;;;;7.18;5.93;;;18.00;99.90;;;;;;5041341;28;20052;-84
2023/09/06 06:41:45;;;;;;;7.95;5.65;;;18.10;99.90;;;;;;5021088;28;20148;-84
2023/09/06 06:44:11;;;;;;;9.43;6.05;;;18.20;99.90;;;;;;5062825;28;20768;-84
2023/09/06 06:46:38;;;;;;;6.47;5.25;;;18.30;99.90;;;;;;5027815;28;20057;-84
2023/09/06 06:49:07;;;;;;;6.47;5.28;;;18.40;99.90;;;;;;5007268;28;20042;-84
2023/09/06 06:51:38;;;;;;;6.25;5.30;;;18.50;99.90;;;;;;5032194;28;20279;-84
2023/09/06 06:54:16;;;;;;;6.05;5.40;;;18.60;99.90;;;;;;5023349;28;20049;-84
2023/09/06 06:56:42;;;;;;;6.07;5.00;;;18.70;99.90;;;;;;5029252;28;20084;-84
2023/09/06 06:59:08;;;;;;;6.20;5.07;;;18.80;99.90;;;;;;5045579;28;20083;-84
2023/09/06 07:01:35;;;;;;;6.95;5.15;;;18.80;99.90;;;;;;5003290;28;20129;-84
2023/09/06 07:04:00;;;;;;;6.22;5.20;;;18.90;99.90;;;;;;5013688;28;20065;-83
2023/09/06 07:06:29;;;;;;;6.25;4.80;;;19.00;99.90;;;;;;5021424;28;20485;-84
2023/09/06 07:08:56;;;;;;;6.03;4.60;;;19.10;99.90;;;;;;5031877;28;20586;-84
2023/09/06 07:11:22;;;;;;;8.50;4.43;;;19.30;99.90;;;;;;5022688;28;20431;-84
2023/09/06 07:13:49;;;;;;;6.53;4.45;;;19.40;99.90;;;;;;5042150;28;20041;-84
2023/09/06 07:16:24;;;;;;;5.10;4.28;;;19.50;99.90;;;;;;5055476;28;20495;-84
2023/09/06 07:18:50;;;;;;;;;;;19.70;99.90;;;;;;5026281;28;20394;-84
2023/09/06 07:21:16;;;;;;;4.60;3.92;;;19.80;99.90;;;;;;5023173;28;20295;-84
2023/09/06 07:23:46;;;;;;;3.47;3.13;;;19.90;99.90;;;;;;5017338;28;20578;-84
2023/09/06 07:26:11;;;;;;;4.45;3.22;;;20.00;99.90;;;;;;5006305;28;20456;-84
2023/09/06 07:28:45;;;;;;;5.68;3.72;;;20.10;99.90;;;;;;5006881;28;20119;-85
2023/09/06 07:31:11;;;;;;;4.30;3.40;;;20.20;99.90;;;;;;5002957;28;20120;-84
2023/09/06 07:33:38;;;;;;;5.82;3.25;;;20.40;99.90;;;;;;4997589;28;20045;-84
2023/09/06 07:36:04;;;;;;;5.38;3.40;;;20.40;99.90;;;;;;5017180;28;20045;-84
2023/09/06 07:38:30;;;;;;;4.05;3.35;;;20.50;99.90;;;;;;5044145;28;20038;-85
2023/09/06 07:41:02;;;;;;;4.28;3.20;;;20.60;99.90;;;;;;5047837;28;20536;-84
2023/09/06 07:43:29;;;;;;;4.97;3.10;;;20.70;99.90;;;;;;5030654;28;20125;-84
2023/09/06 07:46:02;;;;;;;3.63;2.95;;;20.80;99.90;;;;;;5007693;28;20057;-84
2023/09/06 07:48:29;;;;;;;5.57;2.78;;;20.90;99.90;;;;;;5003373;28;20217;-85
2023/09/06 07:50:56;;;;;;;4.28;2.90;;;20.90;99.90;;;;;;5034087;28;20029;-84
2023/09/06 07:53:23;;;;;;;4.45;2.90;;;21.10;99.90;;;;;;5046315;28;20155;-84
2023/09/06 07:55:49;;;;;;;4.55;2.95;;;21.20;99.90;;;;;;5001783;28;20038;-85
2023/09/06 07:58:18;;;;;;;3.35;3.03;;;21.30;99.90;;;;;;5041302;28;20499;-84
2023/09/06 08:00:44;;;;;;;4.50;2.92;;;21.40;99.90;;;;;;5049190;28;20046;-85
2023/09/06 08:03:14;;;;;;;5.05;2.80;;;21.50;99.90;;;;;;5012956;28;20276;-85
2023/09/06 08:05:39;;;;;;;4.88;2.70;;;21.60;99.90;;;;;;5008936;28;20479;-85
2023/09/06 08:08:06;;;;;;;4.70;2.60;;;21.80;99.90;;;;;;5027459;28;20029;-85
2023/09/06 08:10:37;;;;;;;3.78;2.53;;;21.80;99.90;;;;;;5004633;28;20394;-85
2023/09/06 08:13:03;;;;;;;4.47;2.55;;;22.00;99.90;;;;;;5015231;28;20048;-85
2023/09/06 08:15:33;;;;;;;3.70;2.50;;;22.10;99.90;;;;;;4997828;28;20500;-84
2023/09/06 08:18:00;;;;;;;4.10;3.00;;;22.20;99.90;;;;;;5006823;28;20133;-85
2023/09/06 08:20:25;;;;;;;6.07;2.58;;;22.30;99.90;;;;;;5024172;28;20090;-85
2023/09/06 08:22:51;;;;;;;6.50;2.55;;;22.50;99.90;;;;;;5041337;28;20041;-86
2023/09/06 08:25:18;;;;;;;6.05;2.70;;;22.60;99.90;;;;;;5056007;28;20036;-85
2023/09/06 08:27:44;;;;;;;5.15;2.70;;;22.60;99.90;;;;;;5048102;28;20132;-85
2023/09/06 08:30:12;;;;;;;4.57;2.28;;;22.70;99.90;;;;;;5041009;28;20440;-85
2023/09/06 08:32:40;;;;;;;2.72;2.30;;;22.80;99.90;;;;;;5023271;28;20382;-86
2023/09/06 08:35:06;;;;;;;2.90;2.45;;;23.00;99.90;;;;;;5026063;28;20072;-85
2023/09/06 08:37:33;;;;;;;3.88;2.30;;;23.10;99.90;;;;;;5058882;28;20040;-85
2023/09/06 08:40:04;;;;;;;3.92;2.70;;;23.10;99.90;;;;;;5009004;28;20033;-85
2023/09/06 08:42:33;;;;;;;4.18;2.63;;;23.20;99.90;;;;;;5014222;28;20041;-85
2023/09/06 08:45:01;;;;;;;5.30;2.38;;;23.40;99.90;;;;;;5023469;28;20041;-85
2023/09/06 08:47:27;;;;;;;4.72;2.28;;;23.50;99.90;;;;;;5038936;28;20119;-85
2023/09/06 08:49:54;;;;;;;3.20;2.35;;;23.50;99.90;;;;;;5023915;28;20033;-85
2023/09/06 08:52:20;;;;;;;3.30;2.50;;;23.70;99.90;;;;;;5006955;28;20267;-85
2023/09/06 08:54:48;;;;;;;4.68;2.47;;;23.90;99.90;;;;;;5040614;28;20480;-85
2023/09/06 08:57:14;;;;;;;3.17;2.35;;;23.80;99.90;;;;;;5034806;28;20137;-86
2023/09/06 08:59:41;;;;;;;3.22;2.38;;;23.90;99.90;;;;;;5042325;28;20037;-86
2023/09/06 09:02:12;;;;;;;3.00;2.30;;;24.10;99.90;;;;;;5036919;28;20308;-85
2023/09/06 09:04:44;;;;;;;4.78;2.22;;;24.20;99.90;;;;;;5006719;28;20048;-86
2023/09/06 09:07:11;;;;;;;2.55;2.35;;;24.30;99.90;;;;;;5060143;28;20041;-85
2023/09/06 09:10:04;;;;;;;3.72;2.40;;;24.40;99.90;;;;;;5034736;28;20048;-85
2023/09/06 09:12:31;;;;;;;2.40;2.03;;;24.50;99.90;;;;;;5054529;28;20671;-85
2023/09/06 09:14:58;;;;;;;3.05;2.33;;;24.50;99.90;;;;;;5059442;28;20341;-85
2023/09/06 09:17:25;;;;;;;3.88;2.13;;;24.60;99.90;;;;;;5038075;28;20044;-86
2023/09/06 09:19:52;;;;;;;6.07;2.53;;;24.80;99.90;;;;;;5025778;28;20435;-86
2023/09/06 09:22:25;;;;;;;4.45;2.20;;;24.80;99.90;;;;;;5043121;28;20045;-86
2023/09/06 09:25:02;;;;;;;3.72;2.50;;;25.10;99.90;;;;;;5048651;28;20081;-86
2023/09/06 09:27:28;;;;;;;4.28;2.10;;;25.00;99.90;;;;;;5012211;28;20089;-86
2023/09/06 09:30:00;;;;;;;3.67;2.38;;;25.00;99.90;;;;;;5025767;28;20140;-85
2023/09/06 09:32:25;;;;;;;4.22;2.58;;;25.10;99.90;;;;;;5021695;28;20340;-85
2023/09/06 09:34:52;;;;;;;3.30;2.20;;;25.20;99.90;;;;;;5061296;28;20084;-86
2023/09/06 09:37:19;;;;;;;3.03;2.40;;;25.20;99.90;;;;;;5059065;28;20106;-86
2023/09/06 09:39:47;;;;;;;3.95;2.15;;;25.40;99.90;;;;;;5058693;28;20614;-86
2023/09/06 09:42:13;;;;;;;3.38;2.35;;;25.60;99.90;;;;;;5025467;28;20123;-86
2023/09/06 09:44:42;;;;;;;3.33;2.17;;;25.50;99.90;;;;;;5036817;28;20053;-86
2023/09/06 09:47:13;;;;;;;5.97;2.90;;;25.70;99.90;;;;;;5054085;28;20552;-86
2023/09/06 09:49:41;;;;;;;3.92;2.30;;;25.80;99.90;;;;;;5027125;28;20069;-85
2023/09/06 09:52:14;;;;;;;3.40;2.40;;;25.90;99.90;;;;;;5019174;28;20034;-86
2023/09/06 09:54:42;;;;;;;2.30;2.10;;;26.10;99.90;;;;;;5036451;28;20357;-86
2023/09/06 09:57:09;;;;;;;5.05;2.10;;;26.10;99.90;;;;;;5019852;28;20034;-86
2023/09/06 09:59:37;;;;;;;3.53;2.33;;;26.30;99.90;;;;;;5006601;28;20126;-86
2023/09/06 10:02:04;;;;;;;4.18;2.28;;;26.30;99.90;;;;;;5020675;28;20073;-86
2023/09/06 10:04:42;;;;;;;3.33;2.10;;;26.30;99.90;;;;;;5058083;28;20044;-86
2023/09/06 10:07:09;;;;;;;3.33;2.05;;;26.50;99.90;;;;;;5030143;28;20049;-86
2023/09/06 10:09:39;;;;;;;3.38;2.20;;;26.60;99.90;;;;;;5039393;28;20037;-86
2023/09/06 10:12:07;;;;;;;3.78;2.22;;;26.60;99.90;;;;;;5020329;28;20042;-86
2023/09/06 10:14:33;;;;;;;3.55;1.92;;;26.70;99.90;;;;;;5014740;28;20029;-85
2023/09/06 10:17:00;;;;;;;3.75;2.25;;;26.90;99.90;;;;;;5046636;28;20046;-86
2023/09/06 10:19:27;;;;;;;2.92;2.30;;;26.80;99.90;;;;;;5044416;28;20120;-86
2023/09/06 10:21:53;;;;;;;3.78;2.10;;;27.10;99.90;;;;;;5023935;28;20049;-86
2023/09/06 10:24:21;;;;;;;3.60;1.95;;;27.10;99.90;;;;;;5031693;28;20098;-85
2023/09/06 10:26:48;;;;;;;3.60;2.30;;;27.10;99.90;;;;;;5031841;28;20038;-86
2023/09/06 10:29:22;;;;;;;4.80;2.10;;;27.20;99.90;;;;;;5001800;28;20037;-86
2023/09/06 10:31:52;;;;;;;3.95;1.98;;;27.30;99.90;;;;;;5023570;28;20045;-85
2023/09/06 10:34:19;;;;;;;2.53;2.08;;;27.20;99.90;;;;;;5026522;28;20158;-86
2023/09/06 10:37:00;;;;;;;3.30;2.17;;;27.30;99.90;;;;;;5045176;28;20584;-86
2023/09/06 10:39:28;;;;;;;2.72;2.00;;;27.50;99.90;;;;;;5013523;28;20033;-86
2023/09/06 10:42:09;;;;;;;3.90;2.10;;;27.60;99.90;;;;;;5003677;28;20056;-86
2023/09/06 10:44:58;;;;;;;3.08;1.90;;;27.50;99.90;;;;;;5036167;28;20083;-86
2023/09/06 10:47:25;;;;;;;3.67;2.10;;;27.80;99.90;;;;;;5002544;28;20048;-86
2023/09/06 10:50:15;;;;;;;3.47;2.13;;;27.80;99.90;;;;;;5050959;28;20065;-86
2023/09/06 10:52:51;;;;;;;3.08;1.90;;;28.00;99.90;;;;;;5012477;28;20063;-85
2023/09/06 10:55:18;;;;;;;3.60;2.10;;;28.10;99.90;;;;;;5036098;28;20059;-86
2023/09/06 10:57:52;;;;;;;4.82;1.90;;;28.10;99.90;;;;;;5020576;28;20052;-85
2023/09/06 11:00:20;;;;;;;3.67;2.15;;;28.00;99.90;;;;;;5025646;28;20049;-86
2023/09/06 11:03:08;;;;;;;2.65;2.13;;;28.20;99.90;;;;;;5005074;28;20328;-86
2023/09/06 11:05:35;;;;;;;3.25;2.30;;;28.30;99.90;;;;;;5031203;28;20056;-86
2023/09/06 11:08:02;;;;;;;5.60;1.92;;;28.50;99.90;;;;;;5038132;28;20056;-86
2023/09/06 11:10:28;;;;;;;2.10;1.90;;;28.50;99.90;;;;;;5039647;28;20045;-86
2023/09/06 11:13:19;;;;;;;2.92;2.15;;;28.60;99.90;;;;;;5029843;28;20037;-85
2023/09/06 11:15:45;;;;;;;3.13;2.17;;;28.90;99.90;;;;;;5016316;28;20438;-86
2023/09/06 11:18:10;;;;;;;3.47;1.83;;;28.70;99.90;;;;;;5009306;28;20073;-86
2023/09/06 11:20:37;;;;;;;2.92;1.70;;;28.90;99.90;;;;;;5016943;28;20041;-85
2023/09/06 11:23:06;;;;;;;2.80;2.22;;;29.00;99.90;;;;;;5021990;28;20087;-86
2023/09/06 11:25:32;;;;;;;4.32;2.15;;;29.20;99.90;;;;;;5040347;28;20452;-85
2023/09/06 11:28:00;;;;;;;2.40;1.77;;;29.30;99.90;;;;;;5035634;28;20047;-86
2023/09/06 11:30:27;;;;;;;2.50;2.00;;;29.20;99.90;;;;;;5008514;28;20119;-85
2023/09/06 11:32:55;;;;;;;2.88;1.83;;;29.30;99.90;;;;;;4997169;28;20045;-85
2023/09/06 11:35:33;;;;;;;2.83;1.80;;;29.60;99.90;;;;;;5045370;28;20455;-86
2023/09/06 11:38:00;;;;;;;4.53;2.10;;;29.70;99.90;;;;;;5025582;28;20175;-86
2023/09/06 11:40:27;;;;;;;2.95;1.67;;;29.80;99.90;;;;;;5021793;28;20044;-86
2023/09/06 11:42:56;;;;;;;2.20;1.70;;;29.90;99.90;;;;;;5054058;28;20069;-86
2023/09/06 11:45:22;;;;;;;2.97;1.90;;;29.90;99.90;;;;;;5029175;28;20037;-85
2023/09/06 11:47:49;;;;;;;2.60;1.90;;;30.00;99.90;;;;;;5049286;28;20062;-85
2023/09/06 11:50:21;;;;;;;1.85;1.50;;;30.00;99.90;;;;;;5002444;28;20465;-86
2023/09/06 11:52:53;;;;;;;4.18;1.70;;;30.10;99.90;;;;;;5000244;28;20063;-85
2023/09/06 11:55:21;;;;;;;1.85;1.65;;;30.00;1.00;;;;;;5022418;28;20033;-85
2023/09/06 11:57:57;;;;;;;2.90;1.63;;;30.00;99.90;;;;;;5016402;28;21196;-86
2023/09/06 12:00:27;;;;;;;2.53;1.60;;;30.30;99.90;;;;;;5037559;28;20041;-86
2023/09/06 12:03:01;;;;;;;4.93;1.52;;;30.20;1.00;;;;;;5022529;28;20038;-86
2023/09/06 12:05:27;;;;;;;2.88;1.77;;;30.30;99.90;;;;;;5016727;28;20037;-86
2023/09/06 12:07:56;;;;;;;2.95;1.70;;;30.40;99.90;;;;;;5008614;28;20041;-87
2023/09/06 12:10:22;;;;;;;2.33;1.60;;;30.40;1.00;;;;;;5032706;28;20098;-86
2023/09/06 12:12:49;;;;;;;2.25;1.83;;;30.60;1.00;;;;;;5006192;28;20107;-86
2023/09/06 12:15:20;;;;;;;1.80;1.42;;;30.60;99.90;;;;;;5044737;28;20047;-86
2023/09/06 12:17:49;;;;;;;3.42;1.80;;;30.60;1.00;;;;;;5045872;28;20095;-86
2023/09/06 12:20:20;;;;;;;3.05;1.60;;;30.70;1.00;;;;;;5056664;28;20120;-85
2023/09/06 12:22:50;;;;;;;2.63;1.73;;;30.40;99.90;;;;;;5036075;28;20029;-86
2023/09/06 12:25:16;;;;;;;1.60;1.50;;;30.70;99.90;;;;;;5012437;28;20521;-85
2023/09/06 12:27:48;;;;;;;2.35;1.80;;;31.00;1.00;;;;;;5027106;28;20247;-85
2023/09/06 12:30:18;;;;;;;2.53;1.45;;;31.00;99.90;;;;;;5035837;28;20093;-86
2023/09/06 12:32:44;;;;;;;1.70;1.35;;;30.80;1.00;;;;;;5035789;28;20596;-85
2023/09/06 12:35:11;;;;;;;2.38;1.77;;;31.00;99.90;;;;;;5035826;28;20092;-86
2023/09/06 12:37:38;;;;;;;2.85;2.10;;;31.20;99.90;;;;;;5004426;28;20037;-86
2023/09/06 12:40:14;;;;;;;3.22;2.00;;;31.10;99.90;;;;;;5020783;28;20033;-86
2023/09/06 12:42:44;;;;;;;4.20;1.75;;;31.10;1.00;;;;;;5001183;28;20048;-85
2023/09/06 12:45:33;;;;;;;3.83;1.95;;;31.20;99.90;;;;;;5034083;28;20443;-85
2023/09/06 12:47:59;;;;;;;4.65;1.80;;;31.20;99.90;;;;;;5016358;28;20154;-85
2023/09/06 12:50:26;;;;;;;1.50;1.40;;;31.50;99.90;;;;;;5035964;28;20302;-86
2023/09/06 12:52:52;;;;;;;2.38;1.73;;;31.50;99.90;;;;;;5054536;28;20087;-85